Time;durP1;ratioP1;P1;durP2;ratioP2;P2;SDS_P1;SDS_P2;PMS_P1;PMS_P2;Temp;Humidity;BMP_temperature;BMP_pressure;BME280_temperature;BME280_humidity;BME280_pressure;Samples;Min_cycle;Max_cycle;Signal;HPM_P1;HPM_P2
2023/10/21 00:02:26;;;;;;;3.13;1.08;;;13.70;99.90;;;;;;6194665;23;20008;-70
2023/10/21 00:04:51;;;;;;;8.85;1.40;;;13.60;99.90;;;;;;6195334;23;20107;-70
2023/10/21 00:07:17;;;;;;;2.65;1.40;;;13.50;99.90;;;;;;6194716;23;20008;-70
2023/10/21 00:09:42;;;;;;;1.30;0.90;;;13.50;99.90;;;;;;6195473;23;20005;-65
2023/10/21 00:12:09;;;;;;;3.70;0.98;;;13.60;99.90;;;;;;6194311;23;20007;-70
2023/10/21 00:14:34;;;;;;;0.82;0.82;;;13.60;99.90;;;;;;6194545;23;20000;-70
2023/10/21 00:17:00;;;;;;;1.30;1.20;;;13.60;99.90;;;;;;6194142;23;20028;-70
2023/10/21 00:19:26;;;;;;;2.97;0.95;;;13.50;99.90;;;;;;6194578;23;20000;-64
2023/10/21 00:21:53;;;;;;;5.90;1.00;;;13.60;99.90;;;;;;6194464;23;20005;-65
2023/10/21 00:24:19;;;;;;;0.95;0.68;;;13.60;99.90;;;;;;6194447;23;20031;-65
2023/10/21 00:26:49;;;;;;;1.40;1.17;;;13.60;99.90;;;;;;6194414;23;20025;-65
2023/10/21 00:29:17;;;;;;;1.92;1.00;;;13.60;99.90;;;;;;6194786;23;20016;-65
2023/10/21 00:31:43;;;;;;;4.10;0.90;;;13.60;99.90;;;;;;6194223;23;20011;-64
2023/10/21 00:34:12;;;;;;;1.20;0.98;;;13.50;99.90;;;;;;6194528;23;20004;-65
2023/10/21 00:36:38;;;;;;;1.23;0.90;;;13.50;99.90;;;;;;6194916;23;20055;-64
2023/10/21 00:39:10;;;;;;;1.30;0.80;;;13.50;99.90;;;;;;6194598;23;20001;-64
2023/10/21 00:41:36;;;;;;;1.00;0.75;;;13.50;99.90;;;;;;6194679;23;20008;-64
2023/10/21 00:44:01;;;;;;;2.70;0.90;;;13.50;99.90;;;;;;6194339;23;20011;-64
2023/10/21 00:46:27;;;;;;;3.38;1.40;;;13.40;99.90;;;;;;6194957;23;20020;-66
2023/10/21 00:48:53;;;;;;;1.80;1.08;;;13.50;99.90;;;;;;6193918;23;20008;-65
2023/10/21 00:51:19;;;;;;;2.05;0.98;;;13.50;99.90;;;;;;6194079;23;20004;-64
2023/10/21 00:53:45;;;;;;;10.05;1.85;;;13.50;99.90;;;;;;6194562;23;20005;-65
2023/10/21 00:56:11;;;;;;;1.08;0.77;;;13.60;99.90;;;;;;6194194;23;20008;-64
2023/10/21 00:58:50;;;;;;;2.25;0.75;;;13.60;99.90;;;;;;6193877;23;20000;-65
2023/10/21 01:01:16;;;;;;;1.38;0.82;;;13.70;99.90;;;;;;6194830;23;20004;-65
2023/10/21 01:03:41;;;;;;;1.77;1.00;;;13.80;99.90;;;;;;6193977;23;20008;-65
2023/10/21 01:06:07;;;;;;;3.60;0.68;;;13.70;99.90;;;;;;6193996;23;20031;-65
2023/10/21 01:08:43;;;;;;;0.70;0.57;;;13.70;99.90;;;;;;6194065;23;20027;-65
2023/10/21 01:11:12;;;;;;;1.48;0.80;;;13.90;99.90;;;;;;6194284;23;20037;-65
2023/10/21 01:13:38;;;;;;;1.48;0.70;;;13.90;99.90;;;;;;6194491;23;20077;-65
2023/10/21 01:16:04;;;;;;;0.55;0.50;;;13.90;99.90;;;;;;6193826;23;20075;-65
2023/10/21 01:18:33;;;;;;;1.20;0.70;;;13.90;99.90;;;;;;6194752;23;20009;-65
2023/10/21 01:21:02;;;;;;;0.60;0.60;;;13.90;99.90;;;;;;6195295;23;20080;-65
2023/10/21 01:23:28;;;;;;;4.47;0.88;;;13.80;99.90;;;;;;6193641;23;20004;-65
2023/10/21 01:25:54;;;;;;;2.10;0.70;;;13.80;99.90;;;;;;6194665;23;20031;-64
2023/10/21 01:30:48;;;;;;;3.10;1.10;;;13.80;99.90;;;;;;6253022;23;20027;-65
2023/10/21 01:33:14;;;;;;;2.30;0.80;;;13.90;99.90;;;;;;6252786;23;19996;-65
2023/10/21 01:35:39;;;;;;;2.03;0.70;;;14.00;99.90;;;;;;6252310;23;19996;-65
2023/10/21 01:38:05;;;;;;;3.78;0.82;;;14.00;99.90;;;;;;6225962;23;20001;-66
2023/10/21 01:40:30;;;;;;;1.02;0.70;;;13.90;99.90;;;;;;6226186;23;20015;-66
2023/10/21 01:42:56;;;;;;;1.10;0.60;;;13.90;99.90;;;;;;6226523;23;20008;-65
2023/10/21 01:45:23;;;;;;;1.20;0.70;;;13.90;99.90;;;;;;6226166;23;20008;-66
2023/10/21 01:47:48;;;;;;;2.72;0.70;;;13.90;99.90;;;;;;6226044;23;20008;-65
2023/10/21 01:50:14;;;;;;;0.82;0.55;;;13.90;99.90;;;;;;6226301;23;20032;-65
2023/10/21 01:52:40;;;;;;;3.38;0.60;;;13.80;99.90;;;;;;6225653;23;20055;-65
2023/10/21 01:55:06;;;;;;;0.90;0.70;;;13.80;99.90;;;;;;6252082;23;20003;-65
2023/10/21 01:57:32;;;;;;;3.78;0.60;;;13.80;99.90;;;;;;6225690;23;20004;-65
2023/10/21 01:59:59;;;;;;;5.50;0.73;;;13.80;99.90;;;;;;6225601;23;20095;-65
2023/10/21 02:02:25;;;;;;;4.85;0.70;;;13.90;99.90;;;;;;6252102;23;19996;-66
2023/10/21 02:04:51;;;;;;;0.57;0.52;;;13.90;99.90;;;;;;6226609;23;20000;-66
2023/10/21 02:07:16;;;;;;;2.45;0.40;;;14.00;99.90;;;;;;6225474;23;20000;-65
2023/10/21 02:09:42;;;;;;;1.00;0.68;;;14.00;99.90;;;;;;6225583;23;20004;-65
2023/10/21 02:12:09;;;;;;;1.45;0.75;;;14.10;99.90;;;;;;6225393;23;20070;-66
2023/10/21 02:14:34;;;;;;;1.10;0.65;;;14.10;99.90;;;;;;6225525;23;20000;-65
2023/10/21 02:17:00;;;;;;;1.20;0.50;;;14.10;99.90;;;;;;6251821;23;19996;-66
2023/10/21 02:19:25;;;;;;;0.50;0.40;;;14.10;99.90;;;;;;6225439;23;20034;-66
2023/10/21 02:21:51;;;;;;;1.00;0.60;;;14.10;99.90;;;;;;6251858;23;20000;-66
2023/10/21 02:24:16;;;;;;;1.10;0.70;;;14.20;99.90;;;;;;6251740;23;20083;-66
2023/10/21 02:26:42;;;;;;;1.08;0.52;;;14.20;99.90;;;;;;6225776;23;20005;-66
2023/10/21 02:29:08;;;;;;;0.93;0.70;;;14.10;99.90;;;;;;6225890;23;20061;-66
2023/10/21 02:31:34;;;;;;;0.50;0.50;;;14.10;99.90;;;;;;6225296;23;20004;-66
2023/10/21 02:34:00;;;;;;;1.13;0.70;;;14.30;99.90;;;;;;6226422;23;20035;-66
2023/10/21 02:36:25;;;;;;;0.85;0.50;;;14.40;99.90;;;;;;6225444;23;20000;-66
2023/10/21 02:38:54;;;;;;;6.22;0.68;;;14.50;99.90;;;;;;6225576;23;20000;-66
2023/10/21 02:41:19;;;;;;;0.90;0.70;;;14.30;99.90;;;;;;6225131;23;20004;-65
2023/10/21 02:43:45;;;;;;;0.60;0.50;;;14.40;99.90;;;;;;6251570;23;20010;-66
2023/10/21 02:46:13;;;;;;;0.80;0.70;;;14.30;99.90;;;;;;6251696;23;20011;-66
2023/10/21 02:48:39;;;;;;;1.38;0.75;;;14.20;99.90;;;;;;6225540;23;20016;-66
2023/10/21 02:51:31;;;;;;;0.50;0.50;;;14.30;99.90;;;;;;6251448;23;20008;-65
2023/10/21 02:53:57;;;;;;;1.63;0.38;;;14.40;99.90;;;;;;6221186;23;20000;-66
2023/10/21 02:56:23;;;;;;;0.68;0.50;;;14.30;99.90;;;;;;6251876;23;20047;-65
2023/10/21 02:58:49;;;;;;;1.42;0.40;;;14.30;99.90;;;;;;6251591;23;20000;-66
2023/10/21 03:01:19;;;;;;;0.80;0.57;;;14.30;99.90;;;;;;6225352;23;20004;-66
2023/10/21 03:03:47;;;;;;;1.20;0.50;;;14.40;99.90;;;;;;6225162;23;20032;-66
2023/10/21 03:06:14;;;;;;;1.73;0.40;;;14.40;99.90;;;;;;6224979;23;20027;-65
2023/10/21 03:08:41;;;;;;;1.05;0.40;;;14.50;99.90;;;;;;6225790;23;20011;-65
2023/10/21 03:11:07;;;;;;;1.45;0.40;;;14.50;99.90;;;;;;6225126;23;20004;-65
2023/10/21 03:13:35;;;;;;;0.60;0.50;;;14.60;99.90;;;;;;6251186;23;20004;-66
2023/10/21 03:16:04;;;;;;;0.68;0.52;;;14.60;99.90;;;;;;6224996;23;20050;-65
2023/10/21 03:18:30;;;;;;;1.63;0.30;;;14.60;99.90;;;;;;6224949;23;20008;-66
2023/10/21 03:20:56;;;;;;;1.40;0.45;;;14.60;99.90;;;;;;6224910;23;20000;-66
2023/10/21 03:23:21;;;;;;;4.68;0.60;;;14.60;99.90;;;;;;6251247;23;20004;-66
2023/10/21 03:26:13;;;;;;;1.30;0.30;;;14.50;99.90;;;;;;6225181;23;20038;-66
2023/10/21 03:28:39;;;;;;;;;;;14.60;99.90;;;;;;6247365;23;20044;-66
2023/10/21 03:31:05;;;;;;;0.13;0.13;;;14.60;99.90;;;;;;6225427;23;19903;-66
2023/10/21 03:33:31;;;;;;;0.40;0.20;;;14.60;99.90;;;;;;6225108;23;20075;-66
2023/10/21 03:35:59;;;;;;;1.35;0.30;;;14.70;99.90;;;;;;6224995;23;20027;-66
2023/10/21 03:38:25;;;;;;;0.22;0.17;;;14.60;99.90;;;;;;6225575;23;20000;-66
2023/10/21 03:41:07;;;;;;;1.15;0.10;;;14.60;99.90;;;;;;6225677;23;20008;-65
2023/10/21 03:43:34;;;;;;;1.00;0.43;;;14.70;99.90;;;;;;6225641;23;20087;-66
2023/10/21 03:46:08;;;;;;;0.20;0.15;;;14.60;99.90;;;;;;6225206;23;20030;-65
2023/10/21 03:48:34;;;;;;;0.10;0.10;;;14.70;99.90;;;;;;6224872;23;20034;-65
2023/10/21 03:51:13;;;;;;;0.30;0.10;;;14.80;99.90;;;;;;6224246;23;20011;-66
2023/10/21 03:53:40;;;;;;;0.65;0.10;;;14.70;99.90;;;;;;6225682;23;20000;-66
2023/10/21 03:56:06;;;;;;;0.65;0.22;;;14.80;99.90;;;;;;6224487;23;20027;-66
2023/10/21 03:58:32;;;;;;;0.25;0.00;;;14.80;99.90;;;;;;6250967;23;19996;-65
2023/10/21 04:00:58;;;;;;;1.15;0.10;;;14.80;99.90;;;;;;6224459;23;20011;-66
2023/10/21 04:03:27;;;;;;;0.10;0.10;;;14.80;99.90;;;;;;6224482;23;20086;-65
2023/10/21 04:05:53;;;;;;;0.10;0.00;;;14.80;99.90;;;;;;6225355;23;20009;-66
2023/10/21 04:08:20;;;;;;;3.05;0.38;;;14.80;99.90;;;;;;6224463;23;20004;-66
2023/10/21 04:10:45;;;;;;;0.35;0.10;;;14.80;99.90;;;;;;6250710;23;20018;-65
2023/10/21 04:13:11;;;;;;;0.00;0.00;;;14.80;99.90;;;;;;6251106;23;20070;-65
2023/10/21 04:15:37;;;;;;;0.10;0.10;;;14.70;99.90;;;;;;6250733;23;20011;-65
2023/10/21 04:18:03;;;;;;;0.52;0.10;;;14.70;99.90;;;;;;6250684;23;20032;-65
2023/10/21 04:20:31;;;;;;;0.10;0.10;;;14.80;99.90;;;;;;6224087;23;20057;-65
2023/10/21 04:22:57;;;;;;;0.10;0.10;;;14.70;99.90;;;;;;6250744;23;20007;-65
2023/10/21 04:25:23;;;;;;;1.10;0.10;;;14.80;99.90;;;;;;6224174;23;20087;-65
2023/10/21 04:27:49;;;;;;;0.63;0.17;;;14.80;99.90;;;;;;6224443;23;20091;-65
2023/10/21 04:30:15;;;;;;;0.10;0.10;;;14.80;99.90;;;;;;6250244;23;20055;-65
2023/10/21 04:32:41;;;;;;;0.68;0.15;;;14.80;99.90;;;;;;6224032;23;20012;-65
2023/10/21 04:35:08;;;;;;;0.17;0.10;;;14.70;99.90;;;;;;6224197;23;20007;-65
2023/10/21 04:37:34;;;;;;;1.25;0.38;;;14.80;99.90;;;;;;6250596;23;20000;-65
2023/10/21 04:39:59;;;;;;;2.58;0.20;;;14.70;99.90;;;;;;6250468;23;19996;-65
2023/10/21 04:42:26;;;;;;;1.00;0.50;;;14.70;99.90;;;;;;6224257;23;20004;-65
2023/10/21 04:44:52;;;;;;;4.95;0.20;;;14.60;99.90;;;;;;6224073;23;20011;-65
2023/10/21 04:47:17;;;;;;;0.32;0.20;;;14.60;99.90;;;;;;6224167;23;20011;-65
2023/10/21 04:49:43;;;;;;;0.10;0.10;;;14.50;99.90;;;;;;6250392;23;20004;-65
2023/10/21 04:52:16;;;;;;;0.20;0.20;;;14.40;99.90;;;;;;6223978;23;20001;-65
2023/10/21 04:54:42;;;;;;;0.73;0.20;;;14.40;99.90;;;;;;6224158;23;20006;-65
2023/10/21 04:57:08;;;;;;;1.02;0.20;;;14.40;99.90;;;;;;6223824;23;20031;-65
2023/10/21 04:59:34;;;;;;;1.13;0.15;;;14.40;99.90;;;;;;6250382;23;20054;-65
2023/10/21 05:02:00;;;;;;;1.70;0.20;;;14.50;99.90;;;;;;6250225;23;20000;-65
2023/10/21 05:04:25;;;;;;;1.67;0.30;;;14.50;99.90;;;;;;6252573;23;20000;-65
2023/10/21 05:06:51;;;;;;;0.10;0.10;;;14.50;99.90;;;;;;6226234;23;20062;-65
2023/10/21 05:09:17;;;;;;;0.20;0.17;;;14.50;99.90;;;;;;6225875;23;20016;-65
2023/10/21 05:11:42;;;;;;;1.35;0.17;;;14.50;99.90;;;;;;6252875;23;20030;-65
2023/10/21 05:14:08;;;;;;;1.42;0.22;;;14.50;99.90;;;;;;6227390;23;20000;-65
2023/10/21 05:16:34;;;;;;;0.20;0.15;;;14.60;99.90;;;;;;6227048;23;20023;-65
2023/10/21 05:18:59;;;;;;;1.35;0.25;;;14.60;99.90;;;;;;6252409;23;20000;-65
2023/10/21 05:21:25;;;;;;;0.22;0.17;;;14.60;99.90;;;;;;6225859;23;20005;-65
2023/10/21 05:23:51;;;;;;;0.65;0.32;;;14.60;99.90;;;;;;6253061;23;20001;-65
2023/10/21 05:26:18;;;;;;;6.85;4.72;;;14.50;99.90;;;;;;6252479;23;20031;-66
2023/10/21 05:28:44;;;;;;;12.60;6.85;;;14.50;99.90;;;;;;6252112;23;20018;-65
2023/10/21 05:31:10;;;;;;;10.05;4.57;;;14.50;99.90;;;;;;6226951;23;20099;-65
2023/10/21 05:33:35;;;;;;;5.22;4.53;;;14.50;99.90;;;;;;6225954;23;20011;-65
2023/10/21 05:36:01;;;;;;;4.38;2.38;;;14.50;99.90;;;;;;6226224;23;20015;-65
2023/10/21 05:38:27;;;;;;;1.48;0.85;;;14.60;99.90;;;;;;6252292;23;20085;-65
2023/10/21 05:40:52;;;;;;;0.20;0.20;;;14.60;99.90;;;;;;6252180;23;20054;-65
2023/10/21 05:43:18;;;;;;;0.30;0.30;;;14.50;99.90;;;;;;6252327;23;20028;-66
2023/10/21 05:45:44;;;;;;;4.80;0.40;;;14.40;99.90;;;;;;6225778;23;20008;-66
2023/10/21 05:48:10;;;;;;;1.15;0.20;;;14.40;99.90;;;;;;6225589;23;20004;-66
2023/10/21 05:50:36;;;;;;;0.22;0.10;;;14.40;99.90;;;;;;6251882;23;20000;-65
2023/10/21 05:53:03;;;;;;;0.20;0.20;;;14.40;99.90;;;;;;6226120;23;20064;-66
2023/10/21 05:55:29;;;;;;;1.55;0.50;;;14.50;99.90;;;;;;6252579;23;20007;-66
2023/10/21 05:57:54;;;;;;;2.60;0.28;;;14.40;99.90;;;;;;6252383;23;20005;-66
2023/10/21 06:00:20;;;;;;;1.60;0.40;;;14.50;99.90;;;;;;6225458;23;20000;-65
2023/10/21 06:02:46;;;;;;;0.10;0.10;;;14.50;99.90;;;;;;6225614;23;20050;-66
2023/10/21 06:05:14;;;;;;;1.92;0.20;;;14.50;99.90;;;;;;6225876;23;20115;-66
2023/10/21 06:07:40;;;;;;;0.10;0.10;;;14.50;99.90;;;;;;6225694;23;20004;-65
2023/10/21 06:10:06;;;;;;;0.80;0.20;;;14.60;99.90;;;;;;6252127;23;20069;-66
2023/10/21 06:12:32;;;;;;;4.50;0.30;;;14.60;99.90;;;;;;6225703;23;20000;-65
2023/10/21 06:14:58;;;;;;;0.60;0.20;;;14.50;99.90;;;;;;6251716;23;20080;-66
2023/10/21 06:17:24;;;;;;;0.30;0.10;;;14.50;99.90;;;;;;6225292;23;20012;-66
2023/10/21 06:19:50;;;;;;;0.25;0.20;;;14.50;99.90;;;;;;6251869;23;20122;-66
2023/10/21 06:22:16;;;;;;;0.65;0.20;;;14.50;99.90;;;;;;6226363;23;20036;-66
2023/10/21 06:24:42;;;;;;;0.30;0.20;;;14.40;99.90;;;;;;6252261;23;20050;-66
2023/10/21 06:27:07;;;;;;;1.65;0.20;;;14.40;99.90;;;;;;6225313;23;20001;-66
2023/10/21 06:29:36;;;;;;;0.20;0.20;;;14.40;99.90;;;;;;6251770;23;20011;-65
2023/10/21 06:32:06;;;;;;;0.52;0.43;;;14.50;99.90;;;;;;6251836;23;20058;-66
2023/10/21 06:34:33;;;;;;;0.45;0.20;;;14.50;99.90;;;;;;6226206;23;20012;-65
2023/10/21 06:36:58;;;;;;;0.88;0.20;;;14.50;99.90;;;;;;6252179;23;20061;-65
2023/10/21 06:39:25;;;;;;;2.90;0.30;;;14.50;99.90;;;;;;6225969;23;20094;-65
2023/10/21 06:41:51;;;;;;;0.13;0.13;;;14.60;99.90;;;;;;6225087;23;20087;-65
2023/10/21 06:44:17;;;;;;;0.55;0.30;;;14.60;99.90;;;;;;6226478;23;20015;-65
2023/10/21 06:46:43;;;;;;;3.60;0.57;;;14.60;99.90;;;;;;6225543;23;20083;-65
2023/10/21 06:49:09;;;;;;;0.85;0.30;;;14.60;99.90;;;;;;6225076;23;20035;-66
2023/10/21 06:51:36;;;;;;;1.67;0.52;;;14.70;99.90;;;;;;6224939;23;20000;-65
2023/10/21 06:54:01;;;;;;;0.60;0.40;;;14.70;99.90;;;;;;6251688;23;20004;-65
2023/10/21 06:56:27;;;;;;;0.95;0.22;;;14.70;99.90;;;;;;6251725;23;20008;-66
2023/10/21 06:58:52;;;;;;;1.25;0.30;;;14.80;99.90;;;;;;6225396;23;20063;-65
2023/10/21 07:01:18;;;;;;;0.43;0.20;;;14.80;99.90;;;;;;6225059;23;20035;-65
2023/10/21 07:03:43;;;;;;;6.43;0.45;;;14.80;99.90;;;;;;6225026;23;20062;-65
2023/10/21 07:06:11;;;;;;;1.13;0.25;;;14.80;99.90;;;;;;6225897;23;20027;-65
2023/10/21 07:08:36;;;;;;;0.30;0.30;;;14.90;99.90;;;;;;6251668;23;20000;-65
2023/10/21 07:11:02;;;;;;;0.60;0.30;;;14.90;99.90;;;;;;6225358;23;20130;-65
2023/10/21 07:13:28;;;;;;;0.40;0.40;;;14.90;99.90;;;;;;6226031;23;20078;-65
2023/10/21 07:15:54;;;;;;;0.60;0.60;;;14.90;99.90;;;;;;6224829;23;20063;-65
2023/10/21 07:18:19;;;;;;;0.90;0.80;;;14.90;99.90;;;;;;6251207;23;20031;-65
2023/10/21 07:20:46;;;;;;;1.67;0.50;;;15.00;99.90;;;;;;6224839;23;20004;-66
2023/10/21 07:23:14;;;;;;;1.00;0.50;;;14.90;99.90;;;;;;6225317;23;20000;-64
2023/10/21 07:25:41;;;;;;;0.30;0.28;;;14.90;99.90;;;;;;6251129;23;20018;-65
2023/10/21 07:28:06;;;;;;;0.55;0.35;;;14.90;99.90;;;;;;6251070;23;19996;-67
2023/10/21 07:30:32;;;;;;;1.05;0.40;;;14.90;99.90;;;;;;6224009;22;20043;-68
2023/10/21 07:32:58;;;;;;;1.92;0.40;;;14.80;99.90;;;;;;6251347;23;19996;-69
2023/10/21 07:35:24;;;;;;;0.82;0.40;;;14.80;99.90;;;;;;6224695;23;20066;-68
2023/10/21 07:37:50;;;;;;;1.27;0.30;;;14.80;99.90;;;;;;6224917;23;19996;-68
2023/10/21 07:40:16;;;;;;;3.10;0.47;;;14.80;99.90;;;;;;6224505;23;20001;-68
2023/10/21 07:42:41;;;;;;;0.47;0.38;;;14.90;99.90;;;;;;6224514;23;20031;-68
2023/10/21 07:45:07;;;;;;;1.00;0.22;;;15.00;99.90;;;;;;6251384;23;20080;-68
2023/10/21 07:47:37;;;;;;;1.40;0.50;;;15.00;99.90;;;;;;6224607;23;20054;-68
2023/10/21 07:50:07;;;;;;;0.30;0.30;;;15.20;99.90;;;;;;6250862;23;20012;-68
2023/10/21 07:52:35;;;;;;;0.32;0.30;;;15.40;99.90;;;;;;6251024;23;20004;-68
2023/10/21 07:55:00;;;;;;;0.35;0.20;;;15.50;99.90;;;;;;6250999;23;20004;-68
2023/10/21 07:57:26;;;;;;;0.10;0.10;;;15.60;99.90;;;;;;6251271;23;20130;-68
2023/10/21 07:59:52;;;;;;;0.47;0.20;;;15.60;99.90;;;;;;6250925;23;20008;-69
2023/10/21 08:02:18;;;;;;;3.95;0.43;;;15.60;99.90;;;;;;6250753;23;20027;-68
2023/10/21 08:04:44;;;;;;;0.20;0.20;;;15.60;99.90;;;;;;6224762;23;20007;-68
2023/10/21 08:07:10;;;;;;;0.73;0.20;;;15.60;99.90;;;;;;6224766;23;20028;-68
2023/10/21 08:09:38;;;;;;;1.05;0.20;;;15.60;99.90;;;;;;6224617;23;20000;-68
2023/10/21 08:12:04;;;;;;;0.65;0.40;;;15.60;99.90;;;;;;6224393;23;20031;-68
2023/10/21 08:14:31;;;;;;;1.65;0.30;;;15.60;99.90;;;;;;6224576;23;20007;-68
2023/10/21 08:17:00;;;;;;;0.10;0.10;;;15.60;99.90;;;;;;6224364;23;20054;-68
2023/10/21 08:19:27;;;;;;;1.70;0.40;;;15.60;99.90;;;;;;6224754;23;20006;-68
2023/10/21 08:21:53;;;;;;;0.52;0.20;;;15.60;99.90;;;;;;6224328;23;20031;-68
2023/10/21 08:24:18;;;;;;;3.20;0.20;;;15.60;99.90;;;;;;6224575;23;20000;-68
2023/10/21 08:26:44;;;;;;;0.90;0.17;;;15.50;99.90;;;;;;6224878;23;19996;-68
2023/10/21 08:29:10;;;;;;;2.63;0.20;;;15.40;99.90;;;;;;6224394;23;20000;-68
2023/10/21 08:31:37;;;;;;;0.73;0.25;;;15.50;99.90;;;;;;6224925;23;20055;-68
2023/10/21 08:34:02;;;;;;;1.02;0.20;;;15.40;99.90;;;;;;6225211;23;20004;-68
2023/10/21 08:36:28;;;;;;;0.30;0.20;;;15.30;99.90;;;;;;6224228;23;20011;-68
2023/10/21 08:38:56;;;;;;;0.30;0.30;;;15.30;99.90;;;;;;6224316;23;20004;-68
2023/10/21 08:41:22;;;;;;;0.68;0.30;;;15.40;99.90;;;;;;6224061;23;20000;-68
2023/10/21 08:43:49;;;;;;;0.88;0.20;;;15.50;99.90;;;;;;6224403;23;20007;-68
2023/10/21 08:46:16;;;;;;;0.57;0.10;;;15.60;99.90;;;;;;6224777;23;20050;-68
2023/10/21 08:48:47;;;;;;;0.77;0.32;;;15.60;99.90;;;;;;6224155;23;20008;-69
2023/10/21 08:51:20;;;;;;;1.38;0.70;;;15.70;99.90;;;;;;6223996;23;20005;-69
2023/10/21 08:53:49;;;;;;;0.47;0.25;;;15.70;99.90;;;;;;6224098;23;20105;-68
2023/10/21 08:56:15;;;;;;;0.57;0.13;;;15.70;99.90;;;;;;6224877;23;20004;-69
2023/10/21 08:58:41;;;;;;;4.72;1.13;;;15.60;99.90;;;;;;6224152;23;20008;-69
2023/10/21 09:01:07;;;;;;;1.42;0.30;;;15.60;99.90;;;;;;6224244;23;20000;-68
2023/10/21 09:03:33;;;;;;;0.40;0.30;;;15.70;99.90;;;;;;6224010;23;20019;-68
2023/10/21 09:06:13;;;;;;;0.25;0.10;;;15.70;99.90;;;;;;6225036;23;20034;-68
2023/10/21 09:08:40;;;;;;;1.63;0.68;;;15.70;99.90;;;;;;6225349;23;20027;-68
2023/10/21 09:11:10;;;;;;;0.95;0.50;;;15.70;99.90;;;;;;6224264;23;20008;-68
2023/10/21 09:13:37;;;;;;;0.77;0.20;;;15.70;99.90;;;;;;6224941;23;20019;-68
2023/10/21 09:16:16;;;;;;;0.20;0.17;;;15.70;99.90;;;;;;6225031;23;20015;-68
2023/10/21 09:19:01;;;;;;;0.08;0.05;;;15.80;99.90;;;;;;6224484;23;20015;-68
2023/10/21 09:21:39;;;;;;;1.77;0.40;;;15.70;99.90;;;;;;6251028;23;20074;-68
2023/10/21 09:24:12;;;;;;;0.98;0.10;;;15.80;99.90;;;;;;6225266;23;20012;-68
2023/10/21 09:26:40;;;;;;;1.25;0.25;;;15.90;99.90;;;;;;6224666;23;20075;-68
2023/10/21 09:29:06;;;;;;;5.80;0.45;;;16.00;99.90;;;;;;6223850;23;20052;-68
2023/10/21 09:31:48;;;;;;;0.47;0.10;;;16.20;99.90;;;;;;6224037;23;20015;-68
2023/10/21 09:34:27;;;;;;;6.03;0.35;;;16.30;99.90;;;;;;6224810;23;20008;-68
2023/10/21 09:36:54;;;;;;;1.08;0.50;;;16.10;99.90;;;;;;6224253;23;20035;-68
2023/10/21 09:39:21;;;;;;;0.10;0.10;;;16.00;99.90;;;;;;6224779;23;20004;-68
2023/10/21 09:41:47;;;;;;;1.63;0.90;;;15.90;99.90;;;;;;6224125;23;20008;-68
2023/10/21 09:44:15;;;;;;;3.00;0.50;;;15.90;99.90;;;;;;6224283;23;20059;-68
2023/10/21 09:46:43;;;;;;;1.88;0.38;;;16.00;99.90;;;;;;6224151;23;20000;-68
2023/10/21 09:49:11;;;;;;;0.13;0.13;;;16.00;99.90;;;;;;6225704;23;20004;-68
2023/10/21 09:51:58;;;;;;;1.02;0.50;;;16.00;99.90;;;;;;6225663;23;20039;-68
2023/10/21 09:54:53;;;;;;;1.00;0.32;;;15.90;99.90;;;;;;6226613;23;20015;-68
2023/10/21 09:57:19;;;;;;;2.42;0.40;;;15.90;99.90;;;;;;6210039;23;20008;-68
2023/10/21 09:59:46;;;;;;;1.27;0.77;;;15.90;99.90;;;;;;6226266;23;20004;-68
2023/10/21 10:02:12;;;;;;;0.70;0.30;;;16.00;99.90;;;;;;6225920;23;20011;-68
2023/10/21 10:04:39;;;;;;;2.55;0.30;;;16.00;99.90;;;;;;6226168;23;20043;-68
2023/10/21 10:07:08;;;;;;;1.17;0.30;;;16.00;99.90;;;;;;6226033;23;20000;-68
2023/10/21 10:09:39;;;;;;;1.45;0.40;;;16.10;99.90;;;;;;6225478;23;20007;-68
2023/10/21 10:12:12;;;;;;;0.50;0.30;;;16.10;99.90;;;;;;6226717;23;20000;-68
2023/10/21 10:14:37;;;;;;;3.83;0.40;;;16.20;99.90;;;;;;6226064;23;20004;-68
2023/10/21 10:17:06;;;;;;;2.60;0.73;;;16.20;99.90;;;;;;6226101;23;20086;-68
2023/10/21 10:19:39;;;;;;;0.73;0.20;;;16.30;99.90;;;;;;6225723;23;20004;-68
2023/10/21 10:22:31;;;;;;;1.55;0.28;;;16.40;99.90;;;;;;6226291;23;20004;-68
2023/10/21 10:25:15;;;;;;;0.85;0.30;;;16.70;99.90;;;;;;6226496;23;20004;-69
2023/10/21 10:27:42;;;;;;;1.23;0.50;;;17.00;99.90;;;;;;6226540;23;20028;-68
2023/10/21 10:30:21;;;;;;;0.30;0.20;;;17.30;99.90;;;;;;6225255;23;20008;-68
2023/10/21 10:32:50;;;;;;;2.13;0.50;;;17.40;99.90;;;;;;6225565;23;20004;-69
2023/10/21 10:35:34;;;;;;;2.83;0.28;;;17.40;99.90;;;;;;6225331;23;20000;-69
2023/10/21 10:38:01;;;;;;;1.85;0.30;;;17.30;99.90;;;;;;6226432;23;20028;-69
2023/10/21 10:40:38;;;;;;;1.92;0.63;;;17.20;99.90;;;;;;6225590;23;20019;-68
2023/10/21 10:43:11;;;;;;;0.85;0.40;;;17.10;99.90;;;;;;6226420;23;20059;-68
2023/10/21 10:45:37;;;;;;;3.60;1.10;;;16.90;99.90;;;;;;6226088;23;20000;-68
2023/10/21 10:48:04;;;;;;;2.78;0.43;;;16.90;99.90;;;;;;6226046;23;20011;-68
2023/10/21 10:50:31;;;;;;;2.53;0.65;;;16.80;99.90;;;;;;6225431;23;20007;-68
2023/10/21 10:52:57;;;;;;;1.08;0.50;;;16.70;99.90;;;;;;6225563;23;20083;-68
2023/10/21 10:55:23;;;;;;;5.15;0.45;;;16.70;99.90;;;;;;6225386;23;20000;-69
2023/10/21 10:57:52;;;;;;;2.13;0.95;;;16.90;99.90;;;;;;6225700;23;20005;-68
2023/10/21 11:00:22;;;;;;;2.60;0.98;;;17.10;99.90;;;;;;6224757;23;20010;-68
2023/10/21 11:02:49;;;;;;;3.22;0.38;;;17.10;99.90;;;;;;6226072;23;20008;-69
2023/10/21 11:05:22;;;;;;;1.27;0.50;;;17.10;99.90;;;;;;6225845;23;20000;-69
2023/10/21 11:07:52;;;;;;;1.52;0.52;;;17.20;99.90;;;;;;6225857;23;20025;-69
2023/10/21 11:10:22;;;;;;;1.42;0.60;;;17.30;99.90;;;;;;6225305;23;20062;-69
2023/10/21 11:12:54;;;;;;;2.20;0.60;;;17.20;99.90;;;;;;6225939;23;20061;-69
2023/10/21 11:15:20;;;;;;;;;;;17.20;99.90;;;;;;6226559;23;20035;-68
2023/10/21 11:17:47;;;;;;;3.28;0.35;;;17.10;99.90;;;;;;6225096;23;19904;-69
2023/10/21 11:20:13;;;;;;;4.65;0.60;;;16.90;99.90;;;;;;6225263;23;20012;-69
2023/10/21 11:22:40;;;;;;;0.50;0.40;;;16.90;99.90;;;;;;6225522;23;20004;-69
2023/10/21 11:25:06;;;;;;;0.35;0.30;;;17.10;99.90;;;;;;6225211;23;20000;-68
2023/10/21 11:27:33;;;;;;;2.95;0.60;;;17.10;99.90;;;;;;6224846;23;20004;-68
2023/10/21 11:29:59;;;;;;;3.00;0.52;;;17.10;99.90;;;;;;6225060;23;20008;-69
2023/10/21 11:32:27;;;;;;;2.65;0.70;;;17.10;99.90;;;;;;6224871;23;20031;-69
2023/10/21 11:34:54;;;;;;;0.45;0.35;;;17.20;99.90;;;;;;6225224;23;20012;-69
2023/10/21 11:37:20;;;;;;;1.48;0.30;;;17.20;99.90;;;;;;6225084;23;20039;-69
2023/10/21 11:39:48;;;;;;;0.77;0.40;;;17.30;99.90;;;;;;6224926;23;20004;-69
2023/10/21 11:42:17;;;;;;;1.73;0.50;;;17.60;99.90;;;;;;6225589;23;20011;-69
2023/10/21 11:44:53;;;;;;;4.38;0.40;;;17.70;99.90;;;;;;6224775;23;20004;-69
2023/10/21 11:47:18;;;;;;;1.77;0.50;;;18.10;99.90;;;;;;6224566;23;20003;-69
2023/10/21 11:49:45;;;;;;;1.20;0.50;;;18.40;99.90;;;;;;6224972;23;20004;-69
2023/10/21 11:52:11;;;;;;;4.47;0.45;;;18.60;99.90;;;;;;6224509;23;20012;-69
2023/10/21 11:54:40;;;;;;;1.83;0.60;;;19.00;99.90;;;;;;6225620;23;20004;-69
2023/10/21 12:03:41;;;;;;;0.75;0.38;;;19.30;99.90;;;;;;6261500;23;20016;-70
2023/10/21 12:22:00;;;;;;;1.55;0.47;;;19.90;99.90;;;;;;6251151;23;20004;-69
2023/10/21 12:24:43;;;;;;;2.97;0.68;;;20.40;99.90;;;;;;6250785;23;20002;-70
2023/10/21 12:39:57;;;;;;;2.40;0.38;;;22.10;99.90;;;;;;6251143;23;20012;-69
2023/10/21 12:42:35;;;;;;;1.95;0.50;;;22.30;99.90;;;;;;6224481;23;20036;-69
2023/10/21 12:45:08;;;;;;;3.50;0.77;;;22.10;99.90;;;;;;6225123;23;20011;-69
2023/10/21 12:47:34;;;;;;;4.20;0.75;;;22.00;99.90;;;;;;6224570;23;19996;-69
2023/10/21 12:49:59;;;;;;;2.50;0.57;;;22.00;99.90;;;;;;6225410;23;20050;-69
2023/10/21 12:52:25;;;;;;;1.90;0.80;;;22.10;99.90;;;;;;6225463;23;20008;-69
2023/10/21 12:54:51;;;;;;;4.85;0.98;;;21.90;99.90;;;;;;6224896;23;20008;-69
2023/10/21 12:57:17;;;;;;;0.90;0.40;;;21.70;99.90;;;;;;6224388;23;20008;-69
2023/10/21 12:59:42;;;;;;;4.85;0.57;;;21.70;99.90;;;;;;6223926;23;20012;-70
2023/10/21 13:02:09;;;;;;;2.05;0.70;;;22.00;99.90;;;;;;6223956;23;20004;-70
2023/10/21 13:04:40;;;;;;;2.72;0.77;;;22.30;99.90;;;;;;6224379;23;20004;-70
2023/10/21 13:07:06;;;;;;;2.08;0.75;;;22.50;99.90;;;;;;6225195;23;20079;-70
2023/10/21 13:09:32;;;;;;;2.25;0.65;;;22.20;99.90;;;;;;6224724;23;20015;-70
2023/10/21 13:11:58;;;;;;;4.28;0.77;;;22.20;99.90;;;;;;6224091;23;20008;-69
2023/10/21 13:14:27;;;;;;;2.95;1.10;;;22.40;99.90;;;;;;6224291;23;20038;-70
2023/10/21 13:16:52;;;;;;;1.67;0.60;;;22.50;99.90;;;;;;6225007;23;20034;-69
2023/10/21 13:19:18;;;;;;;2.03;0.70;;;22.90;99.90;;;;;;6225070;23;20004;-70
2023/10/21 13:21:44;;;;;;;2.15;0.73;;;22.50;99.90;;;;;;6224158;23;20011;-70
2023/10/21 13:24:10;;;;;;;3.90;1.05;;;22.20;99.90;;;;;;6225967;23;20007;-70
2023/10/21 13:26:35;;;;;;;4.32;0.85;;;22.60;99.90;;;;;;6226273;23;20000;-70
2023/10/21 13:29:01;;;;;;;2.65;0.57;;;23.00;99.90;;;;;;6225841;23;20012;-70